Mount Washington, Massachusetts
Current Conditions -  °F | °C
As of 3:54 PM on Monday 22 Dec 2014 (Local Time) from KPSF Reporting Station
Overcast Overcast  
Wind Chill: 30°   Ceiling: 1300
Heat Index: 35°   Visibility: 10mi
Dew Point: 31°   Wind: 6mph
Humidity: 85%   Direction: 100°E
Pressure: 30.24"   Gusts: NA
Location:  42.094°N, 73.4662°W
Report Text: KPSF 222054Z AUTO 10005KT 10SM OVC013 02/M01 A3024 RMK AO2 SLP249 T00171006 55003
Loading
Personal Weather Stations






























Interactive Weather Map New forecast layout! Learn more

10-Day Weather Forecast

Advertisements
Track Severe Weather on mobile